Time;durP1;ratioP1;P1;durP2;ratioP2;P2;SDS_P1;SDS_P2;PMS_P1;PMS_P2;Temp;Humidity;BMP_temperature;BMP_pressure;BME280_temperature;BME280_humidity;BME280_pressure;Samples;Min_cycle;Max_cycle;Signal;HPM_P1;HPM_P2
2023/12/14 00:01:10;;;;;;;8.77;5.90;;;6.20;99.90;;;;;;4243870;27;20091;-60
2023/12/14 00:03:11;;;;;;;10.53;5.90;;;6.20;99.90;;;;;;4245076;27;20031;-60
2023/12/14 00:05:12;;;;;;;9.40;6.60;;;6.20;99.90;;;;;;4243510;27;20031;-61
2023/12/14 00:07:15;;;;;;;12.67;7.67;;;6.20;99.90;;;;;;4244446;27;20040;-60
2023/12/14 00:09:16;;;;;;;11.17;7.93;;;6.20;99.90;;;;;;4208600;28;20044;-61
2023/12/14 00:11:17;;;;;;;13.50;8.17;;;6.20;99.90;;;;;;4244434;27;20116;-60
2023/12/14 00:13:18;;;;;;;11.87;8.13;;;6.20;99.90;;;;;;4243098;27;20039;-59
2023/12/14 00:15:20;;;;;;;12.30;8.13;;;6.20;99.90;;;;;;4243734;27;20104;-61
2023/12/14 00:17:21;;;;;;;12.63;8.43;;;6.30;99.90;;;;;;4243572;27;20540;-59
2023/12/14 00:19:23;;;;;;;11.90;8.73;;;6.30;99.90;;;;;;4243619;27;20092;-60
2023/12/14 00:21:25;;;;;;;13.60;8.20;;;6.30;99.90;;;;;;4244036;27;20475;-62
2023/12/14 00:23:27;;;;;;;13.00;8.40;;;6.30;99.90;;;;;;4243613;27;20467;-60
2023/12/14 00:25:28;;;;;;;14.13;8.37;;;6.30;99.90;;;;;;4244258;27;20039;-60
2023/12/14 00:27:29;;;;;;;11.73;7.97;;;6.30;99.90;;;;;;4242846;27;20027;-61
2023/12/14 00:29:30;;;;;;;12.00;8.30;;;6.30;99.90;;;;;;4244766;27;20031;-62
2023/12/14 00:31:31;;;;;;;13.40;8.33;;;6.30;99.90;;;;;;4242911;27;20039;-60
2023/12/14 00:33:32;;;;;;;12.47;8.37;;;6.30;99.90;;;;;;4243830;27;20084;-60
2023/12/14 00:35:34;;;;;;;12.67;7.97;;;6.30;99.90;;;;;;4241746;27;20103;-60
2023/12/14 00:37:35;;;;;;;11.00;7.53;;;6.30;99.90;;;;;;4244253;27;20091;-61
2023/12/14 00:39:36;;;;;;;11.80;7.90;;;6.20;99.90;;;;;;4243054;27;20072;-59
2023/12/14 00:41:37;;;;;;;12.73;7.53;;;6.20;99.90;;;;;;4244256;27;20036;-58
2023/12/14 00:43:39;;;;;;;11.10;7.17;;;6.20;99.90;;;;;;4242968;27;20108;-60
2023/12/14 00:45:41;;;;;;;14.33;8.83;;;6.20;99.90;;;;;;4243115;27;20560;-59
2023/12/14 00:47:42;;;;;;;14.37;9.03;;;6.20;99.90;;;;;;4242630;27;20084;-58
2023/12/14 00:49:43;;;;;;;11.83;8.53;;;6.20;99.90;;;;;;4242252;27;20167;-61
2023/12/14 00:51:45;;;;;;;13.70;9.33;;;6.10;99.90;;;;;;4242628;27;20036;-60
2023/12/14 00:53:46;;;;;;;15.60;9.63;;;6.10;99.90;;;;;;4243155;27;20832;-60
2023/12/14 00:55:47;;;;;;;12.63;9.00;;;6.10;99.90;;;;;;4243838;27;20051;-59
2023/12/14 00:57:49;;;;;;;13.87;9.33;;;6.10;99.90;;;;;;4241983;27;20096;-60
2023/12/14 00:59:50;;;;;;;15.60;10.27;;;6.10;99.90;;;;;;4244203;27;20425;-60
2023/12/14 01:01:51;;;;;;;13.73;9.00;;;6.00;99.90;;;;;;4243035;27;20351;-61
2023/12/14 01:03:52;;;;;;;16.60;10.30;;;6.00;99.90;;;;;;4244158;27;20368;-61
2023/12/14 01:05:53;;;;;;;13.63;9.33;;;6.00;99.90;;;;;;4242796;27;20428;-58
2023/12/14 01:07:55;;;;;;;15.00;10.03;;;6.00;99.90;;;;;;4243221;27;20060;-61
2023/12/14 01:09:56;;;;;;;16.57;9.97;;;6.00;99.90;;;;;;4241984;27;20092;-58
2023/12/14 01:11:57;;;;;;;15.87;9.53;;;6.00;99.90;;;;;;4244487;27;20417;-61
2023/12/14 01:13:58;;;;;;;16.10;8.93;;;5.90;99.90;;;;;;4242952;27;20360;-58
2023/12/14 01:15:59;;;;;;;16.17;10.40;;;6.00;99.90;;;;;;4242704;27;20092;-61
2023/12/14 01:18:01;;;;;;;16.00;10.30;;;6.00;99.90;;;;;;4243422;27;20023;-61
2023/12/14 01:20:07;;;;;;;14.67;8.50;;;6.00;99.90;;;;;;4226118;27;20418;-59
2023/12/14 01:22:08;;;;;;;14.53;8.60;;;6.00;99.90;;;;;;4242124;27;20543;-60
2023/12/14 01:24:09;;;;;;;11.20;8.30;;;6.00;99.90;;;;;;4242051;27;20080;-59
2023/12/14 01:26:10;;;;;;;13.93;8.50;;;6.00;99.90;;;;;;4243791;27;20023;-61
2023/12/14 01:28:13;;;;;;;11.63;7.77;;;6.00;99.90;;;;;;4241555;27;20035;-60
2023/12/14 01:30:15;;;;;;;12.17;7.40;;;6.00;99.90;;;;;;4243055;27;20072;-60
2023/12/14 01:32:16;;;;;;;13.40;8.17;;;6.00;99.90;;;;;;4242673;27;20027;-60
2023/12/14 01:34:17;;;;;;;12.07;8.17;;;6.00;99.90;;;;;;4242171;27;20043;-59
2023/12/14 01:36:23;;;;;;;13.60;8.67;;;6.00;99.90;;;;;;4242496;27;20067;-60
2023/12/14 01:38:24;;;;;;;12.73;8.47;;;6.00;99.90;;;;;;4242768;27;20039;-63
2023/12/14 01:40:25;;;;;;;14.03;8.83;;;6.00;99.90;;;;;;4242377;27;20023;-60
2023/12/14 01:42:26;;;;;;;12.27;8.13;;;6.00;99.90;;;;;;4243026;28;20115;-62
2023/12/14 01:44:27;;;;;;;12.77;8.47;;;6.00;99.90;;;;;;4242773;28;20024;-59
2023/12/14 01:46:28;;;;;;;12.07;8.07;;;6.10;99.90;;;;;;4247214;27;20039;-61
2023/12/14 01:48:30;;;;;;;12.07;7.67;;;6.00;99.90;;;;;;4248318;27;20107;-61
2023/12/14 01:50:31;;;;;;;11.40;7.60;;;6.10;99.90;;;;;;4247664;27;20088;-60
2023/12/14 01:52:32;;;;;;;11.83;8.50;;;6.00;99.90;;;;;;4247570;27;20031;-62
2023/12/14 01:54:33;;;;;;;12.27;8.03;;;6.00;99.90;;;;;;4247361;27;20113;-60
2023/12/14 01:56:35;;;;;;;14.70;8.80;;;6.10;99.90;;;;;;4248383;27;20087;-60
2023/12/14 01:58:36;;;;;;;13.87;8.43;;;6.00;99.90;;;;;;4247406;27;20039;-61
2023/12/14 02:00:56;;;;;;;12.43;7.97;;;6.00;99.90;;;;;;4248747;27;20035;-60
2023/12/14 02:02:57;;;;;;;12.25;7.85;;;6.00;99.90;;;;;;4247629;27;20080;-58
2023/12/14 02:04:59;;;;;;;14.27;8.53;;;6.10;99.90;;;;;;4248934;27;20024;-60
2023/12/14 02:07:00;;;;;;;14.00;8.73;;;6.10;99.90;;;;;;4247496;27;20031;-60
2023/12/14 02:09:01;;;;;;;14.70;9.47;;;6.10;99.90;;;;;;4248299;27;20060;-61
2023/12/14 02:11:03;;;;;;;14.60;8.60;;;6.00;99.90;;;;;;4246848;27;20079;-61
2023/12/14 02:13:04;;;;;;;15.20;9.23;;;6.10;99.90;;;;;;4248570;27;20084;-61
2023/12/14 02:15:06;;;;;;;13.63;8.30;;;6.10;99.90;;;;;;4247805;27;20038;-62
2023/12/14 02:17:07;;;;;;;13.03;8.20;;;6.10;99.90;;;;;;4248840;27;20023;-62
2023/12/14 02:19:08;;;;;;;18.70;9.53;;;6.00;99.90;;;;;;4247188;27;20428;-61
2023/12/14 02:21:09;;;;;;;13.83;8.67;;;6.00;99.90;;;;;;4248350;27;20030;-61
2023/12/14 02:23:10;;;;;;;11.13;7.27;;;6.00;99.90;;;;;;4247695;27;20072;-60
2023/12/14 02:25:12;;;;;;;10.27;7.50;;;6.00;99.90;;;;;;4246900;27;20092;-61
2023/12/14 02:27:13;;;;;;;10.37;7.07;;;6.00;99.90;;;;;;4247588;27;20047;-61
2023/12/14 02:29:14;;;;;;;13.27;7.47;;;6.00;99.90;;;;;;4229559;28;20159;-58
2023/12/14 02:31:17;;;;;;;10.40;7.10;;;6.00;99.90;;;;;;4247701;27;20162;-59
2023/12/14 02:33:18;;;;;;;13.83;7.30;;;6.00;99.90;;;;;;4246829;27;20064;-60
2023/12/14 02:35:19;;;;;;;10.90;6.83;;;6.00;99.90;;;;;;4248413;27;20046;-59
2023/12/14 02:37:21;;;;;;;12.63;6.90;;;6.00;99.90;;;;;;4247620;27;20084;-62
2023/12/14 02:39:22;;;;;;;12.57;7.53;;;6.00;99.90;;;;;;4248542;27;20039;-59
2023/12/14 02:41:23;;;;;;;14.03;8.80;;;6.00;99.90;;;;;;4247910;27;20540;-61
2023/12/14 02:43:24;;;;;;;9.93;7.07;;;6.00;99.90;;;;;;4247568;27;20058;-61
2023/12/14 02:45:25;;;;;;;11.13;7.20;;;6.00;99.90;;;;;;4246620;27;20575;-61
2023/12/14 02:47:27;;;;;;;11.87;8.30;;;6.00;99.90;;;;;;4248162;27;20035;-61
2023/12/14 02:49:28;;;;;;;10.20;6.93;;;6.00;99.90;;;;;;4246866;27;20421;-60
2023/12/14 02:51:29;;;;;;;9.33;6.63;;;6.10;99.90;;;;;;4247707;27;20051;-62
2023/12/14 02:53:30;;;;;;;9.90;7.00;;;6.10;99.90;;;;;;4229012;28;20085;-60
2023/12/14 02:55:31;;;;;;;9.50;6.13;;;6.10;99.90;;;;;;4228929;28;20101;-59
2023/12/14 02:57:33;;;;;;;10.63;6.60;;;6.10;99.90;;;;;;4244856;27;20052;-59
2023/12/14 02:59:34;;;;;;;11.20;6.10;;;6.10;99.90;;;;;;4245175;27;20015;-60
2023/12/14 03:01:35;;;;;;;10.30;6.43;;;6.10;99.90;;;;;;4244894;27;20046;-61
2023/12/14 03:03:39;;;;;;;8.67;6.50;;;6.10;99.90;;;;;;4244272;27;20028;-61
2023/12/14 03:05:40;;;;;;;8.07;6.13;;;6.10;99.90;;;;;;4245202;27;20107;-61
2023/12/14 03:07:41;;;;;;;7.57;6.17;;;6.00;99.90;;;;;;4244832;27;20477;-60
2023/12/14 03:09:44;;;;;;;12.93;8.03;;;6.00;99.90;;;;;;4246093;27;20123;-60
2023/12/14 03:11:46;;;;;;;12.07;7.77;;;6.00;99.90;;;;;;4244054;27;20092;-60
2023/12/14 03:13:47;;;;;;;12.60;8.70;;;6.00;99.90;;;;;;4245247;27;20449;-58
2023/12/14 03:15:49;;;;;;;15.80;8.53;;;5.90;99.90;;;;;;4235858;27;20506;-59
2023/12/14 03:17:50;;;;;;;11.60;8.20;;;5.90;99.90;;;;;;4245540;27;20084;-63
2023/12/14 03:19:51;;;;;;;14.67;8.93;;;5.90;99.90;;;;;;4243373;27;20035;-60
2023/12/14 03:21:52;;;;;;;11.53;7.97;;;5.80;99.90;;;;;;4245374;27;20031;-61
2023/12/14 03:23:53;;;;;;;13.07;8.27;;;5.80;99.90;;;;;;4243823;27;20370;-60
2023/12/14 03:25:55;;;;;;;14.63;8.83;;;5.80;99.90;;;;;;4244427;27;20095;-59
2023/12/14 03:27:56;;;;;;;10.97;7.77;;;5.80;99.90;;;;;;4244774;27;20072;-60
2023/12/14 03:29:57;;;;;;;11.30;7.77;;;5.80;99.90;;;;;;4243757;27;20035;-60
2023/12/14 03:31:58;;;;;;;14.23;8.17;;;5.80;99.90;;;;;;4243997;27;20091;-60
2023/12/14 03:34:00;;;;;;;14.57;9.97;;;5.80;99.90;;;;;;4244624;27;20024;-58
2023/12/14 03:36:02;;;;;;;14.63;10.53;;;5.80;99.90;;;;;;4245277;27;20491;-61
2023/12/14 03:38:03;;;;;;;14.73;9.33;;;5.80;99.90;;;;;;4244473;27;20027;-62
2023/12/14 03:40:05;;;;;;;12.33;7.90;;;5.80;99.90;;;;;;4227089;28;20043;-60
2023/12/14 03:42:06;;;;;;;11.73;8.07;;;5.80;99.90;;;;;;4243439;27;20043;-62
2023/12/14 03:44:07;;;;;;;11.60;7.87;;;5.80;99.90;;;;;;4244409;27;21026;-61
2023/12/14 03:46:08;;;;;;;10.57;7.07;;;5.80;99.90;;;;;;4243596;27;20095;-61
2023/12/14 03:48:09;;;;;;;11.33;8.13;;;5.80;99.90;;;;;;4244413;27;20115;-62
2023/12/14 03:50:12;;;;;;;11.10;7.13;;;5.80;99.90;;;;;;4244131;27;20031;-61
2023/12/14 03:52:13;;;;;;;10.20;7.07;;;5.80;99.90;;;;;;4245147;27;20382;-61
2023/12/14 03:54:14;;;;;;;12.80;7.67;;;5.90;99.90;;;;;;4244120;27;20547;-61
2023/12/14 03:56:16;;;;;;;13.67;8.30;;;5.90;99.90;;;;;;4243976;27;20055;-62
2023/12/14 03:58:17;;;;;;;12.40;8.53;;;5.90;99.90;;;;;;4244066;27;20034;-60
2023/12/14 04:00:18;;;;;;;12.27;8.63;;;5.90;99.90;;;;;;4225576;28;20682;-61
2023/12/14 04:02:19;;;;;;;13.73;7.90;;;5.90;99.90;;;;;;4244094;27;20035;-61
2023/12/14 04:04:20;;;;;;;12.90;8.17;;;5.90;99.90;;;;;;4244203;27;20532;-59
2023/12/14 04:06:22;;;;;;;13.57;8.97;;;5.80;99.90;;;;;;4244546;27;20031;-60
2023/12/14 04:08:23;;;;;;;11.23;7.23;;;5.80;99.90;;;;;;4242646;27;20027;-61
2023/12/14 04:10:24;;;;;;;9.13;6.87;;;5.90;99.90;;;;;;4243889;27;20035;-61
2023/12/14 04:12:25;;;;;;;9.53;6.33;;;5.80;99.90;;;;;;4242685;27;20039;-61
2023/12/14 04:14:26;;;;;;;9.13;6.57;;;5.80;99.90;;;;;;4244871;27;20015;-61
2023/12/14 04:16:27;;;;;;;8.03;5.87;;;5.80;99.90;;;;;;4243439;27;20039;-61
2023/12/14 04:18:29;;;;;;;8.83;5.63;;;5.80;99.90;;;;;;4244601;27;20900;-63
2023/12/14 04:20:30;;;;;;;7.87;5.90;;;5.80;99.90;;;;;;4242380;27;20043;-62
2023/12/14 04:22:31;;;;;;;10.00;6.20;;;5.90;99.90;;;;;;4244420;27;20097;-58
2023/12/14 04:24:32;;;;;;;9.07;6.33;;;5.80;99.90;;;;;;4243116;27;20069;-59
2023/12/14 04:26:34;;;;;;;8.53;6.00;;;5.90;99.90;;;;;;4243477;27;20402;-60
2023/12/14 04:28:35;;;;;;;8.80;5.93;;;5.90;99.90;;;;;;4243624;27;20023;-60
2023/12/14 04:30:37;;;;;;;9.07;6.57;;;5.90;99.90;;;;;;4242316;27;20039;-60
2023/12/14 04:32:38;;;;;;;10.73;6.57;;;5.90;99.90;;;;;;4244004;27;20487;-61
2023/12/14 04:34:39;;;;;;;9.83;6.40;;;5.90;99.90;;;;;;4242884;27;20119;-60
2023/12/14 04:36:44;;;;;;;19.63;7.17;;;5.90;99.90;;;;;;4242913;27;20115;-61
2023/12/14 04:38:46;;;;;;;8.00;5.73;;;5.90;99.90;;;;;;4242481;27;20039;-60
2023/12/14 04:40:47;;;;;;;8.03;6.23;;;5.90;99.90;;;;;;4244202;27;20031;-61
2023/12/14 04:42:48;;;;;;;8.20;6.07;;;5.90;99.90;;;;;;4243353;27;20027;-60
2023/12/14 04:44:50;;;;;;;11.40;6.40;;;5.90;99.90;;;;;;4244152;27;20474;-60
2023/12/14 04:46:51;;;;;;;8.13;5.83;;;6.00;99.90;;;;;;4241916;27;20531;-58
2023/12/14 04:48:52;;;;;;;9.23;6.27;;;6.00;99.90;;;;;;4243114;27;20050;-60
2023/12/14 04:50:53;;;;;;;9.00;6.20;;;6.00;99.90;;;;;;4224086;28;20024;-62
2023/12/14 04:52:55;;;;;;;8.20;6.00;;;6.00;99.90;;;;;;4243930;27;20088;-62
2023/12/14 04:54:56;;;;;;;8.17;5.97;;;6.10;99.90;;;;;;4243083;27;20034;-62
2023/12/14 04:56:57;;;;;;;7.23;5.40;;;6.10;99.90;;;;;;4243659;27;20508;-62
2023/12/14 04:58:58;;;;;;;9.40;6.07;;;6.10;99.90;;;;;;4242516;27;20069;-63
2023/12/14 05:00:59;;;;;;;7.33;5.57;;;6.10;99.90;;;;;;4241824;27;20107;-62
2023/12/14 05:03:01;;;;;;;8.40;5.63;;;6.20;99.90;;;;;;4242300;27;20088;-63
2023/12/14 05:05:02;;;;;;;9.47;7.47;;;6.20;99.90;;;;;;4223614;28;20138;-62
2023/12/14 05:07:03;;;;;;;7.93;5.77;;;6.20;99.90;;;;;;4243757;27;20031;-63
2023/12/14 05:09:05;;;;;;;8.53;6.30;;;6.20;99.90;;;;;;4242160;27;20534;-63
2023/12/14 05:11:06;;;;;;;10.83;6.60;;;6.20;99.90;;;;;;4243670;27;20080;-61
2023/12/14 05:13:08;;;;;;;14.50;7.50;;;6.20;99.90;;;;;;4242561;27;20413;-61
2023/12/14 05:15:10;;;;;;;9.53;6.83;;;6.20;99.90;;;;;;4243434;27;21875;-62
2023/12/14 05:17:11;;;;;;;12.20;7.53;;;6.20;99.90;;;;;;4241626;27;20144;-61
2023/12/14 05:19:12;;;;;;;12.00;7.30;;;6.30;99.90;;;;;;4243591;27;20027;-62
2023/12/14 05:21:17;;;;;;;21.00;8.10;;;6.20;99.90;;;;;;4241617;27;20043;-62
2023/12/14 05:23:19;;;;;;;15.10;8.03;;;6.30;99.90;;;;;;4240925;27;20027;-61
2023/12/14 05:25:21;;;;;;;11.30;7.67;;;6.30;99.90;;;;;;4226485;27;20072;-61
2023/12/14 05:27:22;;;;;;;13.57;8.20;;;6.30;99.90;;;;;;4230131;27;20417;-58
2023/12/14 05:29:23;;;;;;;12.23;8.00;;;6.30;99.90;;;;;;4241325;27;20104;-58
2023/12/14 05:31:25;;;;;;;14.40;7.60;;;6.30;99.90;;;;;;4241774;27;20092;-60
2023/12/14 05:33:26;;;;;;;12.03;8.00;;;6.40;99.90;;;;;;4241551;27;20455;-61
2023/12/14 05:35:27;;;;;;;11.53;7.30;;;6.30;99.90;;;;;;4241772;27;20031;-61
2023/12/14 05:37:28;;;;;;;14.00;9.47;;;6.40;99.90;;;;;;4238377;27;20479;-62
2023/12/14 05:39:29;;;;;;;17.33;10.87;;;6.40;99.90;;;;;;4237152;27;20544;-61
2023/12/14 05:41:31;;;;;;;21.30;11.17;;;6.40;99.90;;;;;;4242248;27;20092;-60
2023/12/14 05:43:32;;;;;;;12.40;7.43;;;6.40;99.90;;;;;;4241255;28;20099;-60
2023/12/14 05:45:33;;;;;;;15.90;10.83;;;6.40;99.90;;;;;;4242842;28;20483;-62
2023/12/14 05:47:34;;;;;;;14.57;10.30;;;6.40;99.90;;;;;;4241221;28;20054;-61
2023/12/14 05:49:37;;;;;;;15.50;10.90;;;6.40;99.90;;;;;;4242350;28;20055;-58
2023/12/14 05:51:39;;;;;;;16.37;10.67;;;6.40;99.90;;;;;;4232282;28;20441;-60
2023/12/14 05:53:40;;;;;;;14.73;10.23;;;6.30;99.90;;;;;;4241178;28;20092;-63
2023/12/14 05:55:42;;;;;;;18.73;11.37;;;6.30;99.90;;;;;;4241498;28;20047;-62
2023/12/14 05:57:43;;;;;;;16.27;10.70;;;6.30;99.90;;;;;;4224285;28;20762;-62
2023/12/14 05:59:45;;;;;;;16.57;10.03;;;6.40;99.90;;;;;;4242467;27;20765;-61
2023/12/14 06:01:46;;;;;;;17.77;10.23;;;6.40;99.90;;;;;;4241755;28;20035;-62
2023/12/14 06:03:47;;;;;;;18.90;11.73;;;6.40;99.90;;;;;;4242249;28;20035;-61
2023/12/14 06:05:48;;;;;;;16.30;9.53;;;6.40;99.90;;;;;;4242239;28;20035;-60
2023/12/14 06:07:49;;;;;;;27.57;21.90;;;6.40;99.90;;;;;;4242665;28;20035;-61
2023/12/14 06:09:51;;;;;;;41.20;33.00;;;6.40;99.90;;;;;;4241960;28;20023;-62
2023/12/14 06:11:52;;;;;;;38.13;30.37;;;6.40;99.90;;;;;;4243238;28;20045;-61
2023/12/14 06:13:53;;;;;;;29.47;22.30;;;6.40;99.90;;;;;;4242086;28;20452;-60
2023/12/14 06:15:54;;;;;;;33.83;27.63;;;6.30;99.90;;;;;;4242534;28;20047;-58
2023/12/14 06:17:56;;;;;;;31.73;21.07;;;6.30;99.90;;;;;;4241726;28;20035;-61
2023/12/14 06:19:57;;;;;;;32.90;27.77;;;6.30;99.90;;;;;;4243099;28;20357;-60
2023/12/14 06:21:58;;;;;;;28.73;24.17;;;6.30;99.90;;;;;;4241873;28;20545;-61
2023/12/14 06:23:59;;;;;;;31.07;23.17;;;6.30;99.90;;;;;;4242097;28;20126;-59
2023/12/14 06:26:03;;;;;;;28.30;23.40;;;6.30;99.90;;;;;;4241437;28;20027;-61
2023/12/14 06:28:05;;;;;;;26.33;19.00;;;6.40;99.90;;;;;;4236067;28;20091;-62
2023/12/14 06:30:08;;;;;;;17.33;13.67;;;6.40;99.90;;;;;;4231100;28;20043;-60
2023/12/14 06:32:10;;;;;;;15.27;10.97;;;6.40;99.90;;;;;;4236454;27;20079;-60
2023/12/14 06:34:11;;;;;;;13.83;10.73;;;6.40;99.90;;;;;;4239276;27;20040;-60
2023/12/14 06:36:12;;;;;;;15.10;11.00;;;6.50;99.90;;;;;;4239317;27;20051;-61
2023/12/14 06:38:14;;;;;;;16.67;11.50;;;6.50;99.90;;;;;;4239733;27;20035;-60
2023/12/14 06:40:15;;;;;;;13.73;9.50;;;6.50;99.90;;;;;;4239477;27;20039;-61
2023/12/14 06:42:16;;;;;;;8.90;5.70;;;6.60;99.90;;;;;;4241906;27;20031;-56
2023/12/14 06:44:18;;;;;;;7.07;5.30;;;6.60;99.90;;;;;;4238491;27;20448;-60
2023/12/14 06:46:19;;;;;;;8.53;5.17;;;6.60;99.90;;;;;;4221326;28;20027;-60
2023/12/14 06:48:20;;;;;;;6.53;4.67;;;6.60;99.90;;;;;;4238188;27;20043;-61
2023/12/14 06:50:22;;;;;;;4.57;4.03;;;6.60;99.90;;;;;;4239081;27;20103;-59
2023/12/14 06:52:23;;;;;;;7.37;3.97;;;6.60;99.90;;;;;;4238740;27;20027;-60
2023/12/14 06:54:24;;;;;;;3.80;2.80;;;6.60;99.90;;;;;;4241322;27;20174;-61
2023/12/14 06:56:25;;;;;;;4.13;3.00;;;6.60;99.90;;;;;;4239671;27;20080;-60
2023/12/14 06:58:27;;;;;;;3.73;2.53;;;6.70;99.90;;;;;;4239738;27;20043;-60
2023/12/14 07:00:29;;;;;;;3.50;2.77;;;6.80;99.90;;;;;;4240071;27;20031;-60
2023/12/14 07:02:30;;;;;;;3.23;2.40;;;6.80;99.90;;;;;;4240587;27;20039;-61
2023/12/14 07:04:31;;;;;;;5.50;2.63;;;6.80;99.90;;;;;;4238825;27;20548;-61
2023/12/14 07:06:34;;;;;;;5.00;2.67;;;6.70;99.90;;;;;;4241581;27;20092;-60
2023/12/14 07:08:36;;;;;;;4.10;3.00;;;6.80;99.90;;;;;;4245443;27;20115;-60
2023/12/14 07:10:37;;;;;;;3.57;1.80;;;6.80;99.90;;;;;;4243633;27;20088;-58
2023/12/14 07:12:38;;;;;;;4.63;1.90;;;6.80;99.90;;;;;;4244886;27;20398;-59
2023/12/14 07:14:39;;;;;;;3.33;2.10;;;6.80;99.90;;;;;;4243554;27;20039;-58
2023/12/14 07:16:41;;;;;;;5.17;3.00;;;6.80;99.90;;;;;;4245101;27;20120;-60
2023/12/14 07:18:43;;;;;;;5.63;3.13;;;6.80;99.90;;;;;;4244689;27;20027;-60
2023/12/14 07:20:44;;;;;;;6.13;3.83;;;6.80;99.90;;;;;;4245461;27;20035;-61
2023/12/14 07:22:45;;;;;;;5.40;3.57;;;6.90;99.90;;;;;;4244125;27;20111;-63
2023/12/14 07:24:46;;;;;;;8.27;5.10;;;6.90;99.90;;;;;;4245180;27;20360;-56
2023/12/14 07:26:48;;;;;;;6.13;4.60;;;6.90;99.90;;;;;;4243335;27;20107;-58
2023/12/14 07:28:49;;;;;;;6.10;4.10;;;6.90;99.90;;;;;;4245393;27;20027;-57
2023/12/14 07:30:50;;;;;;;6.30;3.87;;;6.90;99.90;;;;;;4244385;27;20496;-58
2023/12/14 07:32:52;;;;;;;9.93;5.60;;;6.90;99.90;;;;;;4243792;27;20057;-61
2023/12/14 07:34:53;;;;;;;7.00;4.10;;;6.90;99.90;;;;;;4243625;27;20035;-62
2023/12/14 07:36:54;;;;;;;6.17;3.93;;;6.90;99.90;;;;;;4244499;27;20092;-60
2023/12/14 07:38:55;;;;;;;3.83;3.17;;;6.90;99.90;;;;;;4244413;27;20053;-59
2023/12/14 07:40:57;;;;;;;4.70;3.50;;;6.90;99.90;;;;;;4242570;27;20432;-61
2023/12/14 07:42:58;;;;;;;3.27;2.83;;;6.90;99.90;;;;;;4245227;27;20023;-60
2023/12/14 07:44:59;;;;;;;4.77;3.40;;;6.90;99.90;;;;;;4244291;27;20433;-60
2023/12/14 07:47:00;;;;;;;6.67;4.70;;;6.90;99.90;;;;;;4245074;27;20076;-60
2023/12/14 07:49:02;;;;;;;6.27;4.40;;;6.90;99.90;;;;;;4243628;27;20035;-60
2023/12/14 07:51:03;;;;;;;3.67;2.63;;;6.90;99.90;;;;;;4244005;27;20107;-61
2023/12/14 07:53:04;;;;;;;4.53;2.30;;;6.90;99.90;;;;;;4243704;27;20083;-59
2023/12/14 07:55:06;;;;;;;5.97;3.37;;;6.90;99.90;;;;;;4245289;27;20019;-60
2023/12/14 07:57:08;;;;;;;5.90;3.33;;;7.00;99.90;;;;;;4242893;27;20515;-61
2023/12/14 07:59:10;;;;;;;2.70;1.57;;;7.00;99.90;;;;;;4245073;27;20035;-61
2023/12/14 08:01:11;;;;;;;2.40;1.53;;;7.00;99.90;;;;;;4243405;27;20027;-58
2023/12/14 08:03:13;;;;;;;1.90;1.33;;;7.00;99.90;;;;;;4244662;27;20027;-61
2023/12/14 08:05:14;;;;;;;2.67;1.70;;;7.10;99.90;;;;;;4243187;27;20100;-60
2023/12/14 08:07:15;;;;;;;2.60;1.63;;;7.10;99.90;;;;;;4224567;28;20572;-61
2023/12/14 08:09:16;;;;;;;3.13;2.00;;;7.10;99.90;;;;;;4243267;27;20035;-61
2023/12/14 08:11:17;;;;;;;3.13;1.90;;;7.20;99.90;;;;;;4243313;27;20056;-57
2023/12/14 08:13:19;;;;;;;4.10;2.07;;;7.20;99.90;;;;;;4243953;27;20115;-59
2023/12/14 08:15:20;;;;;;;4.10;2.30;;;7.20;99.90;;;;;;4242936;27;20425;-61
2023/12/14 08:17:21;;;;;;;4.40;3.10;;;7.20;99.90;;;;;;4244558;27;20858;-61
2023/12/14 08:19:22;;;;;;;4.13;2.23;;;7.10;99.90;;;;;;4242936;27;20039;-60
2023/12/14 08:21:24;;;;;;;3.57;1.87;;;7.20;99.90;;;;;;4243802;27;20051;-60
2023/12/14 08:23:27;;;;;;;5.73;3.50;;;7.20;99.90;;;;;;4242818;27;20076;-59
2023/12/14 08:25:28;;;;;;;3.97;2.90;;;7.20;99.90;;;;;;4244704;27;20025;-60
2023/12/14 08:27:29;;;;;;;2.90;2.40;;;7.10;99.90;;;;;;4243230;27;20424;-59
2023/12/14 08:29:30;;;;;;;2.07;1.57;;;7.10;99.90;;;;;;4244583;27;20031;-59
2023/12/14 08:31:32;;;;;;;1.50;1.40;;;7.10;99.90;;;;;;4241850;27;20378;-59
2023/12/14 08:33:34;;;;;;;1.73;1.40;;;7.10;99.90;;;;;;4243256;27;20080;-61
2023/12/14 08:35:36;;;;;;;3.23;1.30;;;7.10;99.90;;;;;;4242838;27;20134;-60
2023/12/14 08:37:37;;;;;;;1.63;1.40;;;7.10;99.90;;;;;;4243703;27;20043;-60
2023/12/14 08:39:38;;;;;;;1.90;1.27;;;7.10;99.90;;;;;;4243655;27;20023;-61
2023/12/14 08:41:41;;;;;;;2.30;1.57;;;7.10;99.90;;;;;;4242396;27;20429;-61
2023/12/14 08:43:42;;;;;;;2.07;1.30;;;7.20;99.90;;;;;;4244551;27;20043;-61
2023/12/14 08:45:43;;;;;;;2.27;1.43;;;7.10;99.90;;;;;;4242603;27;20023;-60
2023/12/14 08:47:44;;;;;;;1.70;1.23;;;7.10;99.90;;;;;;4242898;27;20100;-60
2023/12/14 08:49:46;;;;;;;2.43;1.40;;;7.20;99.90;;;;;;4243052;27;20076;-61
2023/12/14 08:51:47;;;;;;;3.13;1.67;;;7.20;99.90;;;;;;4243149;27;20088;-63
2023/12/14 08:53:48;;;;;;;1.87;1.20;;;7.20;99.90;;;;;;4242362;27;20023;-61
2023/12/14 08:55:49;;;;;;;3.00;1.20;;;7.20;99.90;;;;;;4243635;27;20035;-61
2023/12/14 08:57:51;;;;;;;1.67;1.07;;;7.20;99.90;;;;;;4223737;28;20044;-61
2023/12/14 08:59:52;;;;;;;5.07;0.90;;;7.20;99.90;;;;;;4242660;27;20092;-59
2023/12/14 09:01:53;;;;;;;1.47;0.90;;;7.20;99.90;;;;;;4241490;27;20039;-61
2023/12/14 09:03:54;;;;;;;1.80;1.33;;;7.20;99.90;;;;;;4244135;27;20023;-59
2023/12/14 09:05:55;;;;;;;2.20;0.60;;;7.10;99.90;;;;;;4241708;27;20047;-60
2023/12/14 09:07:59;;;;;;;3.10;1.00;;;7.10;99.90;;;;;;4242267;27;20039;-58
2023/12/14 09:10:00;;;;;;;2.33;1.40;;;7.10;99.90;;;;;;4242921;27;20023;-58
2023/12/14 09:12:01;;;;;;;4.13;1.80;;;7.20;99.90;;;;;;4242412;27;20035;-61
2023/12/14 09:14:03;;;;;;;2.60;2.00;;;7.10;99.90;;;;;;4243473;27;20027;-61
2023/12/14 09:16:04;;;;;;;3.43;1.80;;;7.10;99.90;;;;;;4242704;27;20095;-60
2023/12/14 09:18:06;;;;;;;1.40;1.30;;;7.20;99.90;;;;;;4242783;27;20080;-61
2023/12/14 09:20:07;;;;;;;1.20;1.00;;;7.20;99.90;;;;;;4242609;27;20409;-60
2023/12/14 09:22:09;;;;;;;2.30;0.80;;;7.20;99.90;;;;;;4243177;27;20072;-62
2023/12/14 09:24:10;;;;;;;2.10;1.50;;;7.20;99.90;;;;;;4223631;28;20043;-61
2023/12/14 09:26:11;;;;;;;7.27;3.90;;;7.20;99.90;;;;;;4243423;27;20122;-60
2023/12/14 09:28:12;;;;;;;6.90;3.30;;;7.20;99.90;;;;;;4240352;27;20035;-62
2023/12/14 09:30:14;;;;;;;1.97;1.20;;;7.20;99.90;;;;;;4239038;27;20039;-59
2023/12/14 09:32:17;;;;;;;5.03;1.43;;;7.20;99.90;;;;;;4241273;27;20027;-61
2023/12/14 09:34:18;;;;;;;0.93;0.87;;;7.20;99.90;;;;;;4224709;28;20081;-57
2023/12/14 09:36:19;;;;;;;0.93;0.40;;;7.20;99.90;;;;;;4242300;27;20019;-60
2023/12/14 09:38:20;;;;;;;2.00;0.80;;;7.20;99.90;;;;;;4243341;27;20027;-60
2023/12/14 09:40:22;;;;;;;7.93;3.23;;;7.20;99.90;;;;;;4222013;28;20070;-58
2023/12/14 09:42:24;;;;;;;6.87;2.67;;;7.20;99.90;;;;;;4241112;27;20491;-60
2023/12/14 09:44:25;;;;;;;5.30;2.80;;;7.10;99.90;;;;;;4241946;27;20092;-60
2023/12/14 09:46:27;;;;;;;4.60;2.30;;;7.10;99.90;;;;;;4241394;28;20072;-58
2023/12/14 09:48:29;;;;;;;2.60;1.10;;;7.10;99.90;;;;;;4241396;28;20138;-61
2023/12/14 09:50:33;;;;;;;2.93;1.30;;;7.20;99.90;;;;;;4242054;28;20023;-59
2023/12/14 09:52:34;;;;;;;3.40;1.70;;;7.20;99.90;;;;;;4241927;28;20491;-60
2023/12/14 09:54:35;;;;;;;2.03;1.20;;;7.20;99.90;;;;;;4240953;28;20031;-57
2023/12/14 09:56:45;;;;;;;6.67;2.20;;;7.30;99.90;;;;;;4243076;28;20039;-59
2023/12/14 09:58:47;;;;;;;14.93;4.90;;;7.30;99.90;;;;;;4241505;28;20036;-61
2023/12/14 10:00:48;;;;;;;3.50;1.77;;;7.40;99.90;;;;;;4243599;28;20023;-61
2023/12/14 10:02:50;;;;;;;1.97;1.43;;;7.40;99.90;;;;;;4240928;28;20084;-59
2023/12/14 10:04:51;;;;;;;7.73;2.87;;;7.40;99.90;;;;;;4243105;28;20540;-61
2023/12/14 10:06:53;;;;;;;2.40;1.13;;;7.40;99.90;;;;;;4229014;27;20035;-61
2023/12/14 10:08:56;;;;;;;9.20;2.60;;;7.40;99.90;;;;;;4245622;27;20039;-60
2023/12/14 10:10:57;;;;;;;2.37;1.83;;;7.40;99.90;;;;;;4244712;27;20020;-61
2023/12/14 10:12:58;;;;;;;1.40;1.03;;;7.40;99.90;;;;;;4244963;27;20100;-61
2023/12/14 10:15:06;;;;;;;1.37;0.47;;;7.30;99.90;;;;;;4245375;27;20122;-61
2023/12/14 10:17:16;;;;;;;0.90;0.80;;;7.30;99.90;;;;;;4245667;27;20043;-65
2023/12/14 10:19:19;;;;;;;1.20;0.93;;;7.30;99.90;;;;;;4245004;27;20039;-61
2023/12/14 10:21:21;;;;;;;0.87;0.70;;;7.30;99.90;;;;;;4246151;27;20031;-61
2023/12/14 10:23:22;;;;;;;2.23;1.30;;;7.20;99.90;;;;;;4245124;27;20039;-60
2023/12/14 10:25:23;;;;;;;6.13;1.70;;;7.20;99.90;;;;;;4245138;27;20031;-61
2023/12/14 10:27:24;;;;;;;1.20;1.10;;;7.20;99.90;;;;;;4244472;27;20108;-61
2023/12/14 10:29:25;;;;;;;1.87;1.17;;;7.20;99.90;;;;;;4244132;27;20088;-61
2023/12/14 10:31:27;;;;;;;1.10;0.80;;;7.20;99.90;;;;;;4246540;27;20035;-59
2023/12/14 10:33:28;;;;;;;1.00;0.70;;;7.20;99.90;;;;;;4226366;28;20097;-60
2023/12/14 10:35:29;;;;;;;1.90;1.00;;;7.10;99.90;;;;;;4245764;27;20103;-54